Decoded Metar for LBSF (SOFIA in BULGARIA) (IATA:SOF) | Meteo·Mobile Aviation Weather
aviador You're here:

LBSF Decoded Metar

SOFIA in BULGARIA
Report Time2018-09-21 03:30:00
UTC Time2018-09-21 04:01:12
Flight Rules vfr VFR
WindVRB at 02 kt
Visibility9999 m
Phenomena:N/A
Clouds:N/A
Expected CloudBase > 1,600 ft AGL from Temp-Dew spread
CeilingNone
Temp12°C (ISA +1)
Dew Point08°C (77% RH)
AAT10.8°C
QNH1021 hPa
Density Alt1,939 ft
Elevation1,952 ft
Report Wrong Elevation
Raw Report
METAR LBSF 210330Z VRB02KT CAVOK 12/08 Q1021 NOSIG=

Extra information for LBSF:More info

Metar Taf Metar & Taf Last 4 Metars F.Rules Stats Wind Profile Meteogram Temp Stats Airport Information Weather charts Add Link Nearby VenuesMetar ALERT Operation Metar Decoded Social comments